Accueil
METAR-TAF:

METAR-TAF

Aéroports :

Caracas, Venezuela

Aéroport international Maiquetía - Simón Bolívar

latitude: 10-36N, longitude: 066-59W, altitude: 43 m

Observation

Le bulletin a été fait il y a 59 minutes, à 22:00 UTC
Vent 4 kt de nord-est
Température 30°C
Humidité 59%
Pression 1012 hPa
Visibilité 10 km ou plus
Nuages épars à une hauteur de 1600 ft

METAR: SVMI 272200Z 05004KT 9999 SCT016 30/21 Q1012

Heure: 18:59 (22:59 UTC)

Prévision

Le bulletin a été fait il y a 6 heures et 59 minutes, à 16:00 UTC
Prévision valable du 27 à 18 UTC au 28 à 18 UTC
Vent 4 kt de ouest/nord-ouest
Visibilité 10 km ou plus
Nuages épars à une hauteur de 1600 ft
Evoluant progressivement
du 27 à 18 UTC au 27 à 22 UTC
Vent 6 kt de est/nord-est
Nuages épars à une hauteur de 7000 ft

TAF: SVMI 271600Z 2718/2818 29004KT 9999 SCT016 TX34/18Z TN25/08Z BECMG 2718/2722 07006KT SCT070

Observations et prévisions météorologiques de plus de 4000 aéroports (messages METAR et TAF).

Les stations disponibles sont représentées par des disques jaunes et rouges sur la carte.

Passer la souris dessus pour voir le nom de la station.

Cliquer dessus pour voir les observations et prévisions météorologiques.

Pour changer de carte: cliquez sur les boutons verts avec une croix noire pour zoomer, sur le bouton vert avec un tiret pour effectuer un zoom arrière, ou sur les flèches vertes pour les cartes adjacentes.


METAR-TAF: